sensor_id;sensor_type;location;lat;lon;timestamp;pressure;altitude;pressure_sealevel;temperature;humidity
54042;BME280;41156;51.508;5.406;2023-05-21T00:00:19;101712.53;;;14.62;72.80
54042;BME280;41156;51.508;5.406;2023-05-21T00:03:20;101716.53;;;14.59;73.81
54042;BME280;41156;51.508;5.406;2023-05-21T00:06:20;101705.50;;;14.48;74.79
54042;BME280;41156;51.508;5.406;2023-05-21T00:09:22;101706.38;;;14.41;74.56
54042;BME280;41156;51.508;5.406;2023-05-21T00:12:22;101699.25;;;14.40;75.06
54042;BME280;41156;51.508;5.406;2023-05-21T00:15:22;101694.28;;;14.37;75.33
54042;BME280;41156;51.508;5.406;2023-05-21T00:18:23;101689.09;;;14.29;75.41
54042;BME280;41156;51.508;5.406;2023-05-21T00:21:26;101689.34;;;14.21;77.53
54042;BME280;41156;51.508;5.406;2023-05-21T00:24:27;101693.72;;;14.22;75.95
54042;BME280;41156;51.508;5.406;2023-05-21T00:27:28;101692.50;;;14.18;76.12
54042;BME280;41156;51.508;5.406;2023-05-21T00:30:28;101689.81;;;14.11;76.23
54042;BME280;41156;51.508;5.406;2023-05-21T00:33:28;101689.44;;;14.07;77.41
54042;BME280;41156;51.508;5.406;2023-05-21T00:36:29;101684.22;;;14.06;77.56
54042;BME280;41156;51.508;5.406;2023-05-21T00:39:30;101684.22;;;14.06;77.36
54042;BME280;41156;51.508;5.406;2023-05-21T00:42:31;101684.88;;;14.01;77.71
54042;BME280;41156;51.508;5.406;2023-05-21T00:45:31;101681.53;;;13.99;78.06
54042;BME280;41156;51.508;5.406;2023-05-21T00:48:32;101678.84;;;13.93;78.49
54042;BME280;41156;51.508;5.406;2023-05-21T00:51:32;101678.25;;;13.91;78.68
54042;BME280;41156;51.508;5.406;2023-05-21T00:54:33;101679.72;;;13.86;78.69
54042;BME280;41156;51.508;5.406;2023-05-21T00:57:34;101680.13;;;13.83;79.91
54042;BME280;41156;51.508;5.406;2023-05-21T01:00:36;101683.50;;;13.79;79.46
54042;BME280;41156;51.508;5.406;2023-05-21T01:03:36;101678.69;;;13.81;79.73
54042;BME280;41156;51.508;5.406;2023-05-21T01:06:37;101674.91;;;13.82;79.78
54042;BME280;41156;51.508;5.406;2023-05-21T01:09:41;101670.78;;;13.79;80.12
54042;BME280;41156;51.508;5.406;2023-05-21T01:12:43;101676.19;;;13.79;80.30
54042;BME280;41156;51.508;5.406;2023-05-21T01:15:44;101668.06;;;13.79;81.33
54042;BME280;41156;51.508;5.406;2023-05-21T01:18:45;101669.09;;;13.78;80.61
54042;BME280;41156;51.508;5.406;2023-05-21T01:21:50;101677.44;;;13.77;82.05
54042;BME280;41156;51.508;5.406;2023-05-21T01:24:52;101674.94;;;13.75;80.89
54042;BME280;41156;51.508;5.406;2023-05-21T01:27:54;101665.38;;;13.73;81.15
54042;BME280;41156;51.508;5.406;2023-05-21T01:31:00;101671.00;;;13.71;81.75
54042;BME280;41156;51.508;5.406;2023-05-21T01:34:04;101674.97;;;13.68;85.29
54042;BME280;41156;51.508;5.406;2023-05-21T01:40:55;101667.94;;;13.61;81.64
54042;BME280;41156;51.508;5.406;2023-05-21T01:44:04;101666.25;;;13.60;83.10
54042;BME280;41156;51.508;5.406;2023-05-21T01:47:06;101666.25;;;13.60;81.73
54042;BME280;41156;51.508;5.406;2023-05-21T01:50:07;101668.34;;;13.58;82.28
54042;BME280;41156;51.508;5.406;2023-05-21T01:53:08;101668.56;;;13.56;82.46
54042;BME280;41156;51.508;5.406;2023-05-21T01:56:08;101669.59;;;13.55;82.09
54042;BME280;41156;51.508;5.406;2023-05-21T01:59:10;101663.34;;;13.55;82.70
54042;BME280;41156;51.508;5.406;2023-05-21T02:02:10;101665.84;;;13.56;82.33
54042;BME280;41156;51.508;5.406;2023-05-21T02:05:10;101653.09;;;13.57;83.23
54042;BME280;41156;51.508;5.406;2023-05-21T02:08:11;101652.06;;;13.58;84.06
54042;BME280;41156;51.508;5.406;2023-05-21T02:11:11;101654.56;;;13.59;83.59
54042;BME280;41156;51.508;5.406;2023-05-21T02:14:12;101658.72;;;13.62;84.10
54042;BME280;41156;51.508;5.406;2023-05-21T02:17:13;101657.47;;;13.64;83.20
54042;BME280;41156;51.508;5.406;2023-05-21T02:20:13;101658.50;;;13.63;84.40
54042;BME280;41156;51.508;5.406;2023-05-21T02:23:13;101658.28;;;13.65;83.77
54042;BME280;41156;51.508;5.406;2023-05-21T02:26:13;101652.16;;;13.83;83.27
54042;BME280;41156;51.508;5.406;2023-05-21T02:29:14;101641.84;;;13.92;82.78
54042;BME280;41156;51.508;5.406;2023-05-21T02:32:14;101650.63;;;13.94;82.70
54042;BME280;41156;51.508;5.406;2023-05-21T02:35:15;101652.47;;;14.00;82.31
54042;BME280;41156;51.508;5.406;2023-05-21T02:38:16;101649.31;;;14.03;81.81
54042;BME280;41156;51.508;5.406;2023-05-21T02:41:18;101649.94;;;14.05;82.52
54042;BME280;41156;51.508;5.406;2023-05-21T02:44:18;101648.88;;;14.06;82.64
54042;BME280;41156;51.508;5.406;2023-05-21T02:47:20;101647.81;;;14.07;82.98
54042;BME280;41156;51.508;5.406;2023-05-21T02:50:22;101644.06;;;14.08;82.63
54042;BME280;41156;51.508;5.406;2023-05-21T02:53:22;101637.59;;;14.09;82.87
54042;BME280;41156;51.508;5.406;2023-05-21T02:56:23;101637.59;;;14.09;84.09
54042;BME280;41156;51.508;5.406;2023-05-21T02:59:23;101636.50;;;14.10;84.27
54042;BME280;41156;51.508;5.406;2023-05-21T03:02:24;101639.63;;;14.14;83.20
54042;BME280;41156;51.508;5.406;2023-05-21T03:05:24;101640.47;;;14.14;82.86
54042;BME280;41156;51.508;5.406;2023-05-21T03:08:24;101630.84;;;14.12;83.73
54042;BME280;41156;51.508;5.406;2023-05-21T03:11:25;101623.13;;;14.09;83.51
54042;BME280;41156;51.508;5.406;2023-05-21T03:14:25;101626.75;;;14.02;83.58
54042;BME280;41156;51.508;5.406;2023-05-21T03:17:27;101626.97;;;14.01;83.97
54042;BME280;41156;51.508;5.406;2023-05-21T03:20:28;101617.16;;;14.00;84.43
54042;BME280;41156;51.508;5.406;2023-05-21T03:23:28;101628.44;;;13.97;84.23
54042;BME280;41156;51.508;5.406;2023-05-21T03:26:28;101623.88;;;13.97;84.69
54042;BME280;41156;51.508;5.406;2023-05-21T03:29:29;101619.47;;;13.96;84.59
54042;BME280;41156;51.508;5.406;2023-05-21T03:32:29;101624.28;;;13.94;84.75
54042;BME280;41156;51.508;5.406;2023-05-21T03:35:29;101615.50;;;13.92;85.00
54042;BME280;41156;51.508;5.406;2023-05-21T03:38:30;101621.59;;;13.94;84.88
54042;BME280;41156;51.508;5.406;2023-05-21T03:41:30;101621.59;;;13.94;86.06
54042;BME280;41156;51.508;5.406;2023-05-21T03:44:30;101620.28;;;13.97;85.95
54042;BME280;41156;51.508;5.406;2023-05-21T03:47:31;101622.56;;;14.00;85.83
54042;BME280;41156;51.508;5.406;2023-05-21T03:50:31;101626.53;;;14.04;85.37
54042;BME280;41156;51.508;5.406;2023-05-21T03:53:32;101623.59;;;14.05;85.71
54042;BME280;41156;51.508;5.406;2023-05-21T03:56:33;101615.44;;;14.05;85.85
54042;BME280;41156;51.508;5.406;2023-05-21T03:59:33;101617.09;;;14.06;85.75
54042;BME280;41156;51.508;5.406;2023-05-21T04:02:34;101616.50;;;14.04;85.67
54042;BME280;41156;51.508;5.406;2023-05-21T04:05:34;101619.22;;;14.04;85.93
54042;BME280;41156;51.508;5.406;2023-05-21T04:08:34;101620.25;;;14.03;86.18
54042;BME280;41156;51.508;5.406;2023-05-21T04:11:35;101618.81;;;14.01;86.36
54042;BME280;41156;51.508;5.406;2023-05-21T04:14:36;101615.88;;;14.02;86.70
54042;BME280;41156;51.508;5.406;2023-05-21T04:17:39;101623.41;;;14.00;86.81
54042;BME280;41156;51.508;5.406;2023-05-21T04:20:39;101627.19;;;13.99;88.46
54042;BME280;41156;51.508;5.406;2023-05-21T04:23:39;101624.47;;;13.99;87.47
54042;BME280;41156;51.508;5.406;2023-05-21T04:26:40;101629.91;;;13.99;88.20
54042;BME280;41156;51.508;5.406;2023-05-21T04:29:41;101629.31;;;13.97;87.29
54042;BME280;41156;51.508;5.406;2023-05-21T04:32:41;101629.06;;;13.99;88.53
54042;BME280;41156;51.508;5.406;2023-05-21T04:35:45;101629.69;;;14.01;88.39
54042;BME280;41156;51.508;5.406;2023-05-21T04:38:48;101627.78;;;14.01;90.05
54042;BME280;41156;51.508;5.406;2023-05-21T04:41:49;101631.34;;;14.02;88.57
54042;BME280;41156;51.508;5.406;2023-05-21T04:44:49;101630.09;;;14.04;88.39
54042;BME280;41156;51.508;5.406;2023-05-21T04:47:50;101633.22;;;14.01;88.28
54042;BME280;41156;51.508;5.406;2023-05-21T04:50:50;101634.88;;;14.09;88.46
54042;BME280;41156;51.508;5.406;2023-05-21T04:53:51;101632.94;;;14.16;88.10
54042;BME280;41156;51.508;5.406;2023-05-21T04:56:53;101637.75;;;14.14;89.28
54042;BME280;41156;51.508;5.406;2023-05-21T04:59:53;101641.50;;;14.13;89.89
54042;BME280;41156;51.508;5.406;2023-05-21T05:02:53;101640.47;;;14.14;88.72
54042;BME280;41156;51.508;5.406;2023-05-21T05:05:53;101642.97;;;14.16;88.63
54042;BME280;41156;51.508;5.406;2023-05-21T05:08:54;101646.91;;;14.20;89.01
54042;BME280;41156;51.508;5.406;2023-05-21T05:11:55;101637.50;;;14.22;89.60
54042;BME280;41156;51.508;5.406;2023-05-21T05:14:55;101635.16;;;14.26;89.62
54042;BME280;41156;51.508;5.406;2023-05-21T05:17:55;101632.00;;;14.29;89.53
54042;BME280;41156;51.508;5.406;2023-05-21T05:20:55;101631.78;;;14.31;89.33
54042;BME280;41156;51.508;5.406;2023-05-21T05:23:56;101629.13;;;14.24;90.19
54042;BME280;41156;51.508;5.406;2023-05-21T05:26:56;101631.38;;;14.27;90.49
54042;BME280;41156;51.508;5.406;2023-05-21T05:29:57;101626.13;;;14.32;89.88
54042;BME280;41156;51.508;5.406;2023-05-21T05:32:57;101623.59;;;14.37;90.64
54042;BME280;41156;51.508;5.406;2023-05-21T05:35:57;101624.78;;;14.41;90.07
54042;BME280;41156;51.508;5.406;2023-05-21T05:38:58;101636.44;;;14.49;90.99
54042;BME280;41156;51.508;5.406;2023-05-21T05:42:00;101636.63;;;14.54;90.38
54042;BME280;41156;51.508;5.406;2023-05-21T05:45:02;101635.31;;;14.63;90.42
54042;BME280;41156;51.508;5.406;2023-05-21T05:48:02;101629.81;;;14.70;90.05
54042;BME280;41156;51.508;5.406;2023-05-21T05:51:03;101634.59;;;14.74;90.01
54042;BME280;41156;51.508;5.406;2023-05-21T05:54:03;101630.50;;;14.84;89.93
54042;BME280;41156;51.508;5.406;2023-05-21T05:57:04;101631.75;;;14.88;90.26
54042;BME280;41156;51.508;5.406;2023-05-21T06:00:05;101628.13;;;14.94;90.57
54042;BME280;41156;51.508;5.406;2023-05-21T06:03:05;101633.09;;;14.97;89.91
54042;BME280;41156;51.508;5.406;2023-05-21T06:06:05;101636.38;;;15.06;89.84
54042;BME280;41156;51.508;5.406;2023-05-21T06:09:06;101635.25;;;15.13;90.16
54042;BME280;41156;51.508;5.406;2023-05-21T06:12:06;101635.78;;;15.22;90.27
54042;BME280;41156;51.508;5.406;2023-05-21T06:15:07;101630.28;;;15.29;91.43
54042;BME280;41156;51.508;5.406;2023-05-21T06:18:07;101627.69;;;15.34;89.46
54042;BME280;41156;51.508;5.406;2023-05-21T06:21:08;101625.50;;;15.43;89.46
54042;BME280;41156;51.508;5.406;2023-05-21T06:24:08;101629.81;;;15.50;91.12
54042;BME280;41156;51.508;5.406;2023-05-21T06:27:08;101631.75;;;15.62;89.98
54042;BME280;41156;51.508;5.406;2023-05-21T06:30:09;101634.72;;;15.79;89.01
54042;BME280;41156;51.508;5.406;2023-05-21T06:33:09;101629.91;;;15.93;88.79
54042;BME280;41156;51.508;5.406;2023-05-21T06:36:10;101629.44;;;15.96;88.30
54042;BME280;41156;51.508;5.406;2023-05-21T06:39:10;101631.00;;;16.03;88.33
54042;BME280;41156;51.508;5.406;2023-05-21T06:42:10;101627.00;;;16.18;90.10
54042;BME280;41156;51.508;5.406;2023-05-21T06:45:11;101625.63;;;16.27;88.12
54042;BME280;41156;51.508;5.406;2023-05-21T06:48:11;101628.25;;;16.34;86.97
54042;BME280;41156;51.508;5.406;2023-05-21T06:51:12;101622.81;;;16.57;86.97
54042;BME280;41156;51.508;5.406;2023-05-21T06:54:13;101631.84;;;16.70;86.03
54042;BME280;41156;51.508;5.406;2023-05-21T06:57:14;101621.41;;;16.90;86.13
54042;BME280;41156;51.508;5.406;2023-05-21T07:00:15;101628.06;;;17.06;85.54
54042;BME280;41156;51.508;5.406;2023-05-21T07:03:15;101610.38;;;17.09;85.32
54042;BME280;41156;51.508;5.406;2023-05-21T07:06:16;101611.09;;;17.04;84.65
54042;BME280;41156;51.508;5.406;2023-05-21T07:09:16;101611.53;;;17.13;84.55
54042;BME280;41156;51.508;5.406;2023-05-21T07:12:17;101604.75;;;17.27;83.99
54042;BME280;41156;51.508;5.406;2023-05-21T07:15:17;101602.91;;;17.45;83.51
54042;BME280;41156;51.508;5.406;2023-05-21T07:18:18;101601.22;;;17.55;83.76
54042;BME280;41156;51.508;5.406;2023-05-21T07:21:18;101601.84;;;17.74;83.30
54042;BME280;41156;51.508;5.406;2023-05-21T07:24:18;101601.91;;;17.91;82.83
54042;BME280;41156;51.508;5.406;2023-05-21T07:27:18;101608.91;;;18.16;82.57
54042;BME280;41156;51.508;5.406;2023-05-21T07:30:19;101603.13;;;18.46;81.23
54042;BME280;41156;51.508;5.406;2023-05-21T07:33:19;101606.09;;;18.79;80.80
54042;BME280;41156;51.508;5.406;2023-05-21T07:36:21;101602.41;;;19.07;78.91
54042;BME280;41156;51.508;5.406;2023-05-21T07:39:21;101598.38;;;19.15;77.77
54042;BME280;41156;51.508;5.406;2023-05-21T07:42:22;101597.63;;;19.19;76.70
54042;BME280;41156;51.508;5.406;2023-05-21T07:45:22;101602.97;;;19.31;77.46
54042;BME280;41156;51.508;5.406;2023-05-21T07:48:22;101597.41;;;19.48;76.75
54042;BME280;41156;51.508;5.406;2023-05-21T07:51:23;101595.78;;;19.74;75.29
54042;BME280;41156;51.508;5.406;2023-05-21T07:54:23;101590.44;;;20.12;75.10
54042;BME280;41156;51.508;5.406;2023-05-21T07:57:23;101594.00;;;20.50;73.72
54042;BME280;41156;51.508;5.406;2023-05-21T08:00:23;101595.34;;;20.80;72.56
54042;BME280;41156;51.508;5.406;2023-05-21T08:03:25;101595.44;;;20.90;71.42
54042;BME280;41156;51.508;5.406;2023-05-21T08:06:25;101595.44;;;20.90;70.54
54042;BME280;41156;51.508;5.406;2023-05-21T08:09:25;101596.53;;;20.94;70.80
54042;BME280;41156;51.508;5.406;2023-05-21T08:12:26;101595.50;;;21.05;69.87
54042;BME280;41156;51.508;5.406;2023-05-21T08:15:26;101601.31;;;21.14;70.02
54042;BME280;41156;51.508;5.406;2023-05-21T08:18:26;101597.75;;;21.19;69.39
54042;BME280;41156;51.508;5.406;2023-05-21T08:21:27;101587.91;;;21.33;69.19
54042;BME280;41156;51.508;5.406;2023-05-21T08:24:27;101588.59;;;21.61;67.89
54042;BME280;41156;51.508;5.406;2023-05-21T08:27:28;101590.81;;;21.85;68.83
54042;BME280;41156;51.508;5.406;2023-05-21T08:30:28;101583.72;;;22.30;66.06
54042;BME280;41156;51.508;5.406;2023-05-21T08:33:28;101585.59;;;22.76;66.60
54042;BME280;41156;51.508;5.406;2023-05-21T08:36:29;101587.44;;;23.11;63.01
54042;BME280;41156;51.508;5.406;2023-05-21T08:39:29;101577.75;;;23.24;64.35
54042;BME280;41156;51.508;5.406;2023-05-21T08:42:42;101572.72;;;23.36;59.54
54042;BME280;41156;51.508;5.406;2023-05-21T08:45:52;101575.16;;;23.43;59.80
54042;BME280;41156;51.508;5.406;2023-05-21T08:48:53;101573.44;;;23.57;62.55
54042;BME280;41156;51.508;5.406;2023-05-21T08:51:54;101568.72;;;23.58;62.22
54042;BME280;41156;51.508;5.406;2023-05-21T08:54:55;101574.25;;;23.58;61.63
54042;BME280;41156;51.508;5.406;2023-05-21T08:57:55;101567.41;;;23.50;61.62
54042;BME280;41156;51.508;5.406;2023-05-21T09:00:56;101569.53;;;23.63;61.91
54042;BME280;41156;51.508;5.406;2023-05-21T09:03:56;101566.63;;;23.89;60.95
54042;BME280;41156;51.508;5.406;2023-05-21T09:06:57;101560.03;;;24.19;60.13
54042;BME280;41156;51.508;5.406;2023-05-21T09:10:06;101572.50;;;24.17;57.41
54042;BME280;41156;51.508;5.406;2023-05-21T09:13:10;101560.22;;;23.99;59.67
54042;BME280;41156;51.508;5.406;2023-05-21T09:16:10;101561.53;;;24.07;59.70
54042;BME280;41156;51.508;5.406;2023-05-21T09:19:11;101563.25;;;24.32;59.43
54042;BME280;41156;51.508;5.406;2023-05-21T09:22:11;101569.97;;;24.55;58.38
54042;BME280;41156;51.508;5.406;2023-05-21T09:25:14;101573.97;;;24.38;57.03
54042;BME280;41156;51.508;5.406;2023-05-21T09:28:16;101576.75;;;24.33;58.21
54042;BME280;41156;51.508;5.406;2023-05-21T09:31:16;101577.72;;;24.18;56.74
54042;BME280;41156;51.508;5.406;2023-05-21T09:34:16;101570.97;;;24.00;58.23
54042;BME280;41156;51.508;5.406;2023-05-21T09:37:17;101561.81;;;24.05;58.27
54042;BME280;41156;51.508;5.406;2023-05-21T09:40:22;101563.13;;;24.13;56.37
54042;BME280;41156;51.508;5.406;2023-05-21T09:43:22;101558.88;;;23.91;58.44
54042;BME280;41156;51.508;5.406;2023-05-21T09:46:24;101559.69;;;24.26;57.53
54042;BME280;41156;51.508;5.406;2023-05-21T09:49:25;101556.28;;;24.69;57.38
54042;BME280;41156;51.508;5.406;2023-05-21T09:52:26;101555.16;;;24.70;56.72
54042;BME280;41156;51.508;5.406;2023-05-21T09:55:28;101556.16;;;24.79;56.39
54042;BME280;41156;51.508;5.406;2023-05-21T09:58:29;101554.47;;;24.83;53.76
54042;BME280;41156;51.508;5.406;2023-05-21T10:01:30;101549.44;;;24.85;56.95
54042;BME280;41156;51.508;5.406;2023-05-21T10:04:30;101552.16;;;24.90;55.12
54042;BME280;41156;51.508;5.406;2023-05-21T10:07:31;101553.25;;;25.14;56.30
54042;BME280;41156;51.508;5.406;2023-05-21T10:10:34;101546.94;;;25.51;54.44
54042;BME280;41156;51.508;5.406;2023-05-21T10:13:38;101526.03;;;25.45;54.54
54042;BME280;41156;51.508;5.406;2023-05-21T10:16:41;101531.47;;;25.31;54.87
54042;BME280;41156;51.508;5.406;2023-05-21T10:19:41;101523.69;;;24.90;55.79
54042;BME280;41156;51.508;5.406;2023-05-21T10:22:43;101524.09;;;25.26;55.01
54042;BME280;41156;51.508;5.406;2023-05-21T10:25:44;101522.34;;;25.49;55.03
54042;BME280;41156;51.508;5.406;2023-05-21T10:28:45;101524.00;;;25.51;54.58
54042;BME280;41156;51.508;5.406;2023-05-21T10:31:45;101519.88;;;25.67;54.11
54042;BME280;41156;51.508;5.406;2023-05-21T10:34:48;101515.97;;;25.87;53.90
54042;BME280;41156;51.508;5.406;2023-05-21T10:37:51;101506.84;;;25.87;53.66
54042;BME280;41156;51.508;5.406;2023-05-21T10:40:53;101513.81;;;26.17;53.16
54042;BME280;41156;51.508;5.406;2023-05-21T10:54:10;101503.59;;;26.59;49.23
54042;BME280;41156;51.508;5.406;2023-05-21T10:57:38;101499.13;;;26.63;50.22
54042;BME280;41156;51.508;5.406;2023-05-21T11:00:44;101492.84;;;26.85;50.82
54042;BME280;41156;51.508;5.406;2023-05-21T11:03:48;101494.38;;;26.91;50.94
54042;BME280;41156;51.508;5.406;2023-05-21T11:06:48;101480.22;;;26.51;49.95
54042;BME280;41156;51.508;5.406;2023-05-21T11:09:49;101486.75;;;26.42;51.51
54042;BME280;41156;51.508;5.406;2023-05-21T11:13:15;101481.94;;;26.61;50.74
54042;BME280;41156;51.508;5.406;2023-05-21T11:16:16;101467.84;;;26.99;50.69
54042;BME280;41156;51.508;5.406;2023-05-21T11:19:17;101466.38;;;27.16;50.18
54042;BME280;41156;51.508;5.406;2023-05-21T11:22:26;101461.84;;;27.20;48.62
54042;BME280;41156;51.508;5.406;2023-05-21T11:25:30;101457.09;;;27.34;47.53
54042;BME280;41156;51.508;5.406;2023-05-21T11:28:33;101447.22;;;27.42;48.41
54042;BME280;41156;51.508;5.406;2023-05-21T11:31:35;101447.53;;;27.40;48.45
54042;BME280;41156;51.508;5.406;2023-05-21T11:34:42;101442.75;;;27.55;48.52
54042;BME280;41156;51.508;5.406;2023-05-21T11:37:49;101438.94;;;27.50;47.87
54042;BME280;41156;51.508;5.406;2023-05-21T11:40:52;101433.53;;;27.68;47.69
54042;BME280;41156;51.508;5.406;2023-05-21T11:43:59;101425.81;;;27.65;47.35
54042;BME280;41156;51.508;5.406;2023-05-21T11:47:00;101434.53;;;27.95;47.46
54042;BME280;41156;51.508;5.406;2023-05-21T11:50:02;101440.59;;;28.05;47.31
54042;BME280;41156;51.508;5.406;2023-05-21T11:53:03;101438.19;;;28.13;47.25
54042;BME280;41156;51.508;5.406;2023-05-21T11:56:04;101437.53;;;28.16;46.92
54042;BME280;41156;51.508;5.406;2023-05-21T11:59:13;101432.38;;;28.32;45.58
54042;BME280;41156;51.508;5.406;2023-05-21T12:02:15;101434.19;;;27.96;45.64
54042;BME280;41156;51.508;5.406;2023-05-21T12:05:18;101425.41;;;27.80;46.04
54042;BME280;41156;51.508;5.406;2023-05-21T12:08:22;101414.03;;;27.91;46.76
54042;BME280;41156;51.508;5.406;2023-05-21T12:11:26;101414.94;;;27.77;46.03
54042;BME280;41156;51.508;5.406;2023-05-21T12:14:26;101407.88;;;27.94;46.73
54042;BME280;41156;51.508;5.406;2023-05-21T12:17:27;101417.94;;;28.21;46.04
54042;BME280;41156;51.508;5.406;2023-05-21T12:20:27;101410.47;;;28.30;45.87
54042;BME280;41156;51.508;5.406;2023-05-21T12:23:28;101415.56;;;28.37;44.31
54042;BME280;41156;51.508;5.406;2023-05-21T12:26:30;101409.53;;;28.35;45.33
54042;BME280;41156;51.508;5.406;2023-05-21T12:29:32;101409.03;;;28.41;45.34
54042;BME280;41156;51.508;5.406;2023-05-21T12:32:32;101404.19;;;28.56;45.44
54042;BME280;41156;51.508;5.406;2023-05-21T12:35:32;101413.16;;;28.53;45.54
54042;BME280;41156;51.508;5.406;2023-05-21T12:38:33;101402.31;;;27.94;45.72
54042;BME280;41156;51.508;5.406;2023-05-21T12:41:33;101410.06;;;27.29;47.12
54042;BME280;41156;51.508;5.406;2023-05-21T12:44:33;101414.53;;;27.39;47.37
54042;BME280;41156;51.508;5.406;2023-05-21T12:47:34;101425.38;;;27.49;47.27
54042;BME280;41156;51.508;5.406;2023-05-21T12:50:38;101416.88;;;27.45;47.30
54042;BME280;41156;51.508;5.406;2023-05-21T12:53:42;101417.56;;;27.51;47.36
54042;BME280;41156;51.508;5.406;2023-05-21T12:56:43;101420.94;;;27.93;46.93
54042;BME280;41156;51.508;5.406;2023-05-21T12:59:58;101431.34;;;28.19;45.69
54042;BME280;41156;51.508;5.406;2023-05-21T13:02:58;101427.88;;;28.45;46.29
54042;BME280;41156;51.508;5.406;2023-05-21T13:06:01;101429.56;;;28.63;45.86
54042;BME280;41156;51.508;5.406;2023-05-21T13:09:01;101421.94;;;28.95;45.56
54042;BME280;41156;51.508;5.406;2023-05-21T13:12:02;101416.53;;;29.07;45.43
54042;BME280;41156;51.508;5.406;2023-05-21T13:15:03;101428.34;;;29.22;44.55
54042;BME280;41156;51.508;5.406;2023-05-21T13:18:08;101428.13;;;29.09;44.95
54042;BME280;41156;51.508;5.406;2023-05-21T13:21:08;101441.84;;;28.71;45.75
54042;BME280;41156;51.508;5.406;2023-05-21T13:24:09;101436.75;;;28.64;44.94
54042;BME280;41156;51.508;5.406;2023-05-21T13:27:09;101426.31;;;28.78;44.83
54042;BME280;41156;51.508;5.406;2023-05-21T13:30:10;101428.56;;;28.59;45.01
54042;BME280;41156;51.508;5.406;2023-05-21T13:33:10;101426.38;;;28.47;45.69
54042;BME280;41156;51.508;5.406;2023-05-21T13:36:11;101418.63;;;28.67;43.92
54042;BME280;41156;51.508;5.406;2023-05-21T13:39:11;101417.78;;;28.17;45.65
54042;BME280;41156;51.508;5.406;2023-05-21T13:42:12;101420.22;;;28.10;45.71
54042;BME280;41156;51.508;5.406;2023-05-21T13:45:17;101414.91;;;28.31;45.93
54042;BME280;41156;51.508;5.406;2023-05-21T13:48:17;101413.38;;;28.65;45.30
54042;BME280;41156;51.508;5.406;2023-05-21T13:51:18;101413.88;;;28.67;45.15
54042;BME280;41156;51.508;5.406;2023-05-21T13:54:18;101410.13;;;28.63;44.99
54042;BME280;41156;51.508;5.406;2023-05-21T13:57:18;101416.28;;;28.51;45.14
54042;BME280;41156;51.508;5.406;2023-05-21T14:00:19;101402.50;;;28.46;45.03
54042;BME280;41156;51.508;5.406;2023-05-21T14:03:19;101396.22;;;28.81;44.97
54042;BME280;41156;51.508;5.406;2023-05-21T14:06:19;101398.03;;;29.11;44.37
54042;BME280;41156;51.508;5.406;2023-05-21T14:09:20;101395.09;;;29.25;44.23
54042;BME280;41156;51.508;5.406;2023-05-21T14:12:22;101391.81;;;29.41;43.58
54042;BME280;41156;51.508;5.406;2023-05-21T14:15:22;101389.03;;;29.14;44.03
54042;BME280;41156;51.508;5.406;2023-05-21T14:18:22;101387.88;;;28.89;44.36
54042;BME280;41156;51.508;5.406;2023-05-21T14:21:24;101381.97;;;28.65;44.53
54042;BME280;41156;51.508;5.406;2023-05-21T14:24:24;101386.25;;;28.79;44.64
54042;BME280;41156;51.508;5.406;2023-05-21T14:27:24;101372.16;;;28.76;44.54
54042;BME280;41156;51.508;5.406;2023-05-21T14:30:25;101379.94;;;28.39;45.28
54042;BME280;41156;51.508;5.406;2023-05-21T14:33:25;101370.88;;;28.16;45.40
54042;BME280;41156;51.508;5.406;2023-05-21T14:36:26;101362.69;;;28.19;45.71
54042;BME280;41156;51.508;5.406;2023-05-21T14:39:26;101378.88;;;28.66;45.34
54042;BME280;41156;51.508;5.406;2023-05-21T14:42:26;101366.44;;;29.07;44.91
54042;BME280;41156;51.508;5.406;2023-05-21T14:45:26;101361.41;;;29.18;44.28
54042;BME280;41156;51.508;5.406;2023-05-21T14:48:27;101357.44;;;29.10;44.52
54042;BME280;41156;51.508;5.406;2023-05-21T14:51:27;101364.81;;;29.24;44.25
54042;BME280;41156;51.508;5.406;2023-05-21T14:54:27;101356.44;;;29.50;44.06
54042;BME280;41156;51.508;5.406;2023-05-21T14:57:28;101347.41;;;29.44;43.81
54042;BME280;41156;51.508;5.406;2023-05-21T15:00:29;101344.34;;;29.11;44.30
54042;BME280;41156;51.508;5.406;2023-05-21T15:03:29;101345.34;;;28.71;44.75
54042;BME280;41156;51.508;5.406;2023-05-21T15:06:29;101339.97;;;28.66;44.88
54042;BME280;41156;51.508;5.406;2023-05-21T15:09:30;101345.69;;;28.70;44.76
54042;BME280;41156;51.508;5.406;2023-05-21T15:12:30;101339.78;;;28.80;44.43
54042;BME280;41156;51.508;5.406;2023-05-21T15:15:30;101340.09;;;28.96;44.17
54042;BME280;41156;51.508;5.406;2023-05-21T15:18:31;101337.31;;;29.13;44.17
54042;BME280;41156;51.508;5.406;2023-05-21T15:21:31;101334.06;;;29.20;44.02
54042;BME280;41156;51.508;5.406;2023-05-21T15:24:31;101331.91;;;29.34;43.84
54042;BME280;41156;51.508;5.406;2023-05-21T15:27:32;101339.56;;;29.46;43.78
54042;BME280;41156;51.508;5.406;2023-05-21T15:30:33;101331.91;;;29.34;43.85
54042;BME280;41156;51.508;5.406;2023-05-21T15:33:33;101335.50;;;29.09;44.36
54042;BME280;41156;51.508;5.406;2023-05-21T15:36:33;101328.47;;;28.59;44.95
54042;BME280;41156;51.508;5.406;2023-05-21T15:39:34;101325.38;;;28.60;44.82
54042;BME280;41156;51.508;5.406;2023-05-21T15:42:34;101328.34;;;28.73;44.84
54042;BME280;41156;51.508;5.406;2023-05-21T15:45:35;101331.09;;;28.90;44.85
54042;BME280;41156;51.508;5.406;2023-05-21T15:48:37;101331.91;;;28.91;44.62
54042;BME280;41156;51.508;5.406;2023-05-21T15:51:37;101332.25;;;28.72;44.94
54042;BME280;41156;51.508;5.406;2023-05-21T15:54:39;101337.81;;;28.72;44.63
54042;BME280;41156;51.508;5.406;2023-05-21T15:57:39;101339.31;;;28.78;45.18
54042;BME280;41156;51.508;5.406;2023-05-21T16:00:39;101345.03;;;29.08;44.91